Time;durP1;ratioP1;P1;durP2;ratioP2;P2;SDS_P1;SDS_P2;PMS_P1;PMS_P2;Temp;Humidity;BMP_temperature;BMP_pressure;BME280_temperature;BME280_humidity;BME280_pressure;Samples;Min_cycle;Max_cycle;Signal;HPM_P1;HPM_P2
2021/04/19 00:02:38;;;;;;;26.20;20.07;;;5.80;99.90;;;;;;6260219;28;20707;-76
2021/04/19 00:05:40;;;;;;;29.50;22.10;;;5.80;99.90;;;;;;6259790;28;20229;-76
2021/04/19 00:08:42;;;;;;;30.27;22.53;;;5.90;99.90;;;;;;6242598;28;20719;-76
2021/04/19 00:11:44;;;;;;;29.10;22.17;;;5.80;99.90;;;;;;6224735;28;20282;-76
2021/04/19 00:14:46;;;;;;;30.33;22.10;;;5.90;99.90;;;;;;6241633;28;20717;-76
2021/04/19 00:17:48;;;;;;;30.93;21.87;;;5.80;99.90;;;;;;6242095;28;20780;-76
2021/04/19 00:20:51;;;;;;;29.10;21.40;;;5.90;99.90;;;;;;6240293;28;20369;-76
2021/04/19 00:23:53;;;;;;;31.67;22.03;;;5.90;99.90;;;;;;6240077;28;20234;-76
2021/04/19 00:26:54;;;;;;;24.57;19.43;;;5.90;99.90;;;;;;6257282;28;20600;-76
2021/04/19 00:29:56;;;;;;;29.37;22.37;;;5.90;99.90;;;;;;6257716;28;20231;-76
2021/04/19 00:32:58;;;;;;;28.97;20.80;;;5.90;99.90;;;;;;6258689;28;20233;-76
2021/04/19 00:36:01;;;;;;;33.77;23.60;;;5.80;99.90;;;;;;6241549;28;20567;-76
2021/04/19 00:39:03;;;;;;;34.17;24.57;;;5.80;99.90;;;;;;6255949;28;20276;-76
2021/04/19 00:42:06;;;;;;;32.37;21.10;;;5.80;99.90;;;;;;6240574;28;20592;-76
2021/04/19 00:45:09;;;;;;;28.73;21.03;;;5.80;99.90;;;;;;6259106;28;20215;-76
2021/04/19 00:48:11;;;;;;;31.30;22.83;;;5.80;99.90;;;;;;6256670;28;20239;-76
2021/04/19 00:51:13;;;;;;;29.73;21.87;;;5.80;99.90;;;;;;6257054;28;20198;-76
2021/04/19 00:54:16;;;;;;;28.40;22.47;;;5.80;99.90;;;;;;6222718;28;20769;-76
2021/04/19 00:57:19;;;;;;;31.33;22.40;;;5.80;99.90;;;;;;6237623;28;20259;-76
2021/04/19 01:00:28;;;;;;;28.73;20.77;;;5.80;99.90;;;;;;6270266;28;20269;-76
2021/04/19 01:03:31;;;;;;;27.37;20.97;;;5.90;99.90;;;;;;6260737;28;20234;-76
2021/04/19 01:06:33;;;;;;;29.20;20.90;;;5.90;99.90;;;;;;6214039;28;20235;-76
2021/04/19 01:09:36;;;;;;;25.93;20.27;;;5.90;99.90;;;;;;6232081;28;20241;-76
2021/04/19 01:12:38;;;;;;;25.07;19.03;;;5.90;99.90;;;;;;6231868;28;20334;-76
2021/04/19 01:15:41;;;;;;;21.80;17.60;;;5.90;99.90;;;;;;6214762;28;20289;-76
2021/04/19 01:18:45;;;;;;;23.83;17.03;;;6.00;99.90;;;;;;6234112;28;20337;-76
2021/04/19 01:21:47;;;;;;;28.23;20.23;;;5.90;99.90;;;;;;6255795;28;20261;-76
2021/04/19 01:24:49;;;;;;;27.40;20.97;;;5.90;99.90;;;;;;6256137;28;20289;-76
2021/04/19 01:27:52;;;;;;;24.17;18.23;;;5.90;99.90;;;;;;6237529;28;20253;-76
2021/04/19 01:30:55;;;;;;;22.47;17.13;;;5.90;99.90;;;;;;6239037;28;20231;-76
2021/04/19 01:33:59;;;;;;;25.93;18.13;;;5.90;99.90;;;;;;6238386;28;20319;-76
2021/04/19 01:37:03;;;;;;;25.43;18.67;;;5.90;99.90;;;;;;6256200;28;20296;-76
2021/04/19 01:40:11;;;;;;;27.83;20.87;;;5.90;99.90;;;;;;6254670;28;20706;-76
2021/04/19 01:43:13;;;;;;;29.00;20.83;;;5.90;99.90;;;;;;6238899;28;20242;-76
2021/04/19 01:46:21;;;;;;;31.00;22.37;;;5.90;99.90;;;;;;6257317;28;20229;-76
2021/04/19 01:49:23;;;;;;;28.07;21.63;;;5.80;99.90;;;;;;6259144;28;20594;-76
2021/04/19 01:52:25;;;;;;;29.70;21.77;;;5.80;99.90;;;;;;6260729;28;20712;-76
2021/04/19 01:55:30;;;;;;;28.37;21.50;;;5.80;99.90;;;;;;6262246;28;20302;-76
2021/04/19 01:58:33;;;;;;;34.13;24.60;;;5.80;99.90;;;;;;6250594;28;20233;-76
2021/04/19 02:01:56;;;;;;;33.13;24.70;;;5.80;99.90;;;;;;6263383;28;20399;-76
2021/04/19 02:05:27;;;;;;;33.13;22.50;;;5.90;99.90;;;;;;6223838;28;20240;-76
2021/04/19 02:08:35;;;;;;;32.37;23.17;;;5.80;99.90;;;;;;6231190;28;20310;-76
2021/04/19 02:12:03;;;;;;;32.83;23.53;;;5.80;99.90;;;;;;6237748;28;20234;-76
2021/04/19 02:15:16;;;;;;;31.80;23.40;;;5.70;99.90;;;;;;6237291;28;20697;-76
2021/04/19 02:18:41;;;;;;;31.90;24.07;;;5.70;99.90;;;;;;6237970;28;20223;-76
2021/04/19 02:21:50;;;;;;;29.07;22.00;;;5.70;99.90;;;;;;6212966;28;20261;-76
2021/04/19 02:25:18;;;;;;;31.07;23.47;;;5.70;99.90;;;;;;6230059;28;20313;-76
2021/04/19 02:28:32;;;;;;;35.90;25.00;;;5.60;99.90;;;;;;6232027;28;20247;-76
2021/04/19 02:31:49;;;;;;;34.17;24.23;;;5.50;99.90;;;;;;6254557;28;20242;-76
2021/04/19 02:34:56;;;;;;;34.33;24.23;;;5.50;99.90;;;;;;6255777;28;20320;-76
2021/04/19 02:38:00;;;;;;;36.47;25.70;;;5.50;99.90;;;;;;6237508;28;20250;-76
2021/04/19 02:41:09;;;;;;;32.23;24.43;;;5.40;99.90;;;;;;6254314;28;20592;-76
2021/04/19 02:44:12;;;;;;;34.00;25.77;;;5.50;99.90;;;;;;6220724;28;20308;-75
2021/04/19 02:47:30;;;;;;;33.93;25.23;;;5.50;99.90;;;;;;6236367;28;20585;-76
2021/04/19 02:50:44;;;;;;;32.93;24.37;;;5.60;99.90;;;;;;6236188;28;20570;-76
2021/04/19 02:53:49;;;;;;;30.50;23.13;;;5.60;99.90;;;;;;6254747;28;20241;-76
2021/04/19 02:56:52;;;;;;;33.50;24.27;;;5.60;99.90;;;;;;6253716;28;20265;-76
2021/04/19 02:59:56;;;;;;;33.33;24.80;;;5.50;99.90;;;;;;6237009;28;20265;-76
2021/04/19 03:03:02;;;;;;;34.07;25.47;;;5.60;99.90;;;;;;6236975;28;20242;-76
2021/04/19 03:06:05;;;;;;;34.53;25.03;;;5.60;99.90;;;;;;6236754;28;20226;-76
2021/04/19 03:09:15;;;;;;;32.33;23.63;;;5.60;99.90;;;;;;6212471;28;20206;-76
2021/04/19 03:12:24;;;;;;;34.57;25.00;;;5.50;99.90;;;;;;6216807;28;20770;-76
2021/04/19 03:15:36;;;;;;;39.13;25.90;;;5.60;99.90;;;;;;6217477;28;20744;-76
2021/04/19 03:18:45;;;;;;;33.30;23.93;;;5.60;99.90;;;;;;6218779;28;20235;-76
2021/04/19 03:21:51;;;;;;;33.00;24.97;;;5.60;99.90;;;;;;6242609;28;20717;-76
2021/04/19 03:24:56;;;;;;;29.50;22.37;;;5.60;99.90;;;;;;6241955;28;20237;-76
2021/04/19 03:28:04;;;;;;;38.23;26.57;;;5.60;99.90;;;;;;6242565;28;20244;-76
2021/04/19 03:31:14;;;;;;;39.63;28.73;;;5.60;99.90;;;;;;6240834;28;20244;-76
2021/04/19 03:34:30;;;;;;;34.27;24.43;;;5.60;99.90;;;;;;6258536;28;20916;-76
2021/04/19 03:37:37;;;;;;;38.13;24.57;;;5.60;99.90;;;;;;6259744;28;20652;-76
2021/04/19 03:40:41;;;;;;;35.77;25.37;;;5.60;99.90;;;;;;6241257;28;20298;-76
2021/04/19 03:43:56;;;;;;;40.50;27.20;;;5.60;99.90;;;;;;6259440;28;20237;-76
2021/04/19 03:47:02;;;;;;;36.37;25.80;;;5.60;99.90;;;;;;6258427;28;20601;-76
2021/04/19 03:50:37;;;;;;;42.33;26.63;;;5.60;99.90;;;;;;6228869;28;20237;-76
2021/04/19 03:53:41;;;;;;;31.90;23.20;;;5.60;99.90;;;;;;6240246;28;20246;-76
2021/04/19 03:56:44;;;;;;;39.20;26.47;;;5.60;99.90;;;;;;6224788;28;20241;-76
2021/04/19 04:00:07;;;;;;;37.53;25.97;;;5.60;99.90;;;;;;6258343;28;20336;-76
2021/04/19 04:03:19;;;;;;;38.63;27.23;;;5.60;99.90;;;;;;6241716;28;20220;-76
2021/04/19 04:06:47;;;;;;;40.00;27.73;;;5.60;99.90;;;;;;6215653;28;20230;-77
2021/04/19 04:09:51;;;;;;;37.10;27.53;;;5.60;99.90;;;;;;6233825;28;20237;-76
2021/04/19 04:12:55;;;;;;;36.97;26.60;;;5.60;99.90;;;;;;6211307;28;20231;-77
2021/04/19 04:15:59;;;;;;;39.90;26.77;;;5.70;99.90;;;;;;6216446;28;20227;-76
2021/04/19 04:19:22;;;;;;;40.27;27.37;;;5.70;99.90;;;;;;6235273;28;20229;-76
2021/04/19 04:22:39;;;;;;;35.83;25.13;;;5.70;99.90;;;;;;6224151;28;20257;-76
2021/04/19 04:25:41;;;;;;;35.77;25.70;;;5.70;99.90;;;;;;6256881;28;20264;-76
2021/04/19 04:28:47;;;;;;;39.17;26.83;;;5.70;99.90;;;;;;6238841;28;20248;-76
2021/04/19 04:31:56;;;;;;;35.50;25.63;;;5.70;99.90;;;;;;6247656;28;20338;-76
2021/04/19 04:34:58;;;;;;;38.57;26.63;;;5.70;99.90;;;;;;6238135;28;20738;-77
2021/04/19 04:38:00;;;;;;;34.73;25.77;;;5.70;99.90;;;;;;6234523;28;20234;-76
2021/04/19 04:41:10;;;;;;;36.80;26.43;;;5.80;99.90;;;;;;6216029;28;20754;-76
2021/04/19 04:44:16;;;;;;;33.77;25.07;;;5.80;99.90;;;;;;6199860;28;20321;-76
2021/04/19 04:47:28;;;;;;;34.87;24.20;;;5.90;99.90;;;;;;6243732;28;20356;-76
2021/04/19 04:50:45;;;;;;;34.43;23.73;;;5.90;99.90;;;;;;6258258;28;20627;-76
2021/04/19 04:53:53;;;;;;;34.53;23.60;;;6.00;99.90;;;;;;6256938;28;20286;-76
2021/04/19 04:57:01;;;;;;;38.10;25.00;;;6.00;99.90;;;;;;6257624;28;20289;-76
2021/04/19 05:00:05;;;;;;;32.10;24.20;;;6.10;99.90;;;;;;6271109;28;20261;-76
2021/04/19 05:03:09;;;;;;;34.97;24.90;;;6.10;99.90;;;;;;6279788;28;20366;-76
2021/04/19 05:06:13;;;;;;;38.30;25.47;;;6.10;99.90;;;;;;6216353;28;20223;-76
2021/04/19 05:09:15;;;;;;;33.33;24.03;;;6.20;99.90;;;;;;6214697;28;20215;-76
2021/04/19 05:12:17;;;;;;;34.70;24.80;;;6.20;99.90;;;;;;6233030;28;20222;-76
2021/04/19 05:15:19;;;;;;;33.33;24.13;;;6.30;99.90;;;;;;6215060;28;20211;-76
2021/04/19 05:18:21;;;;;;;33.20;24.50;;;6.30;99.90;;;;;;6197830;28;20237;-76
2021/04/19 05:21:23;;;;;;;34.37;24.93;;;6.30;99.90;;;;;;6255428;28;20589;-76
2021/04/19 05:24:25;;;;;;;37.23;25.33;;;6.40;99.90;;;;;;6256203;28;20771;-76
2021/04/19 05:27:28;;;;;;;34.43;25.03;;;6.40;99.90;;;;;;6237137;28;20227;-76
2021/04/19 05:30:31;;;;;;;32.60;24.30;;;6.50;99.90;;;;;;6238993;28;20305;-76
2021/04/19 05:33:33;;;;;;;35.63;25.23;;;6.50;99.90;;;;;;6239317;28;20259;-76
2021/04/19 05:36:36;;;;;;;35.27;25.23;;;6.60;99.90;;;;;;6257069;28;20242;-76
2021/04/19 05:39:38;;;;;;;32.13;24.33;;;6.60;99.90;;;;;;6255781;28;20242;-76
2021/04/19 05:42:40;;;;;;;33.03;24.27;;;6.70;99.90;;;;;;6238458;28;20312;-77
2021/04/19 05:45:44;;;;;;;34.20;24.50;;;6.70;99.90;;;;;;6257035;28;20227;-77
2021/04/19 05:48:46;;;;;;;34.80;24.63;;;6.70;99.90;;;;;;6255856;28;20657;-76
2021/04/19 05:51:50;;;;;;;35.70;24.93;;;6.80;99.90;;;;;;6256788;28;20279;-77
2021/04/19 05:54:52;;;;;;;35.17;24.93;;;6.80;99.90;;;;;;6238215;28;20328;-76
2021/04/19 05:58:02;;;;;;;33.17;25.80;;;6.80;99.90;;;;;;6255996;28;20260;-76
2021/04/19 06:01:15;;;;;;;32.40;23.97;;;6.90;99.90;;;;;;6255486;28;20627;-76
2021/04/19 06:04:36;;;;;;;34.83;25.17;;;7.00;99.90;;;;;;6248054;28;20677;-76
2021/04/19 06:07:50;;;;;;;34.30;23.93;;;7.00;99.90;;;;;;6235880;28;20239;-77
2021/04/19 06:11:24;;;;;;;35.10;25.27;;;7.10;99.90;;;;;;6254252;28;20231;-76
2021/04/19 06:14:52;;;;;;;32.67;23.77;;;7.20;99.90;;;;;;6255659;28;20696;-77
2021/04/19 06:17:56;;;;;;;34.77;24.77;;;7.30;99.90;;;;;;6222141;28;20249;-76
2021/04/19 06:21:02;;;;;;;32.90;23.93;;;7.30;99.90;;;;;;6253414;28;20242;-77
2021/04/19 06:24:06;;;;;;;32.17;23.93;;;7.30;99.90;;;;;;6259342;28;20219;-76
2021/04/19 06:27:07;;;;;;;34.77;25.40;;;7.30;99.90;;;;;;6278186;28;20802;-76
2021/04/19 06:30:14;;;;;;;35.07;23.97;;;7.30;99.90;;;;;;6278703;28;20216;-76
2021/04/19 06:33:18;;;;;;;35.20;25.33;;;7.30;99.90;;;;;;6262443;28;20286;-76
2021/04/19 06:36:20;;;;;;;32.50;24.20;;;7.30;99.90;;;;;;6229808;28;20293;-76
2021/04/19 06:39:23;;;;;;;34.80;25.43;;;7.30;99.90;;;;;;6229772;28;20314;-76
2021/04/19 06:42:25;;;;;;;34.97;25.73;;;7.40;99.90;;;;;;6230226;28;20235;-76
2021/04/19 06:45:28;;;;;;;33.40;24.53;;;7.40;99.90;;;;;;6229306;28;20232;-76
2021/04/19 06:48:30;;;;;;;35.07;24.43;;;7.50;99.90;;;;;;6252116;28;20282;-76
2021/04/19 06:51:33;;;;;;;33.80;25.50;;;7.50;99.90;;;;;;6237000;28;20235;-76
2021/04/19 06:54:38;;;;;;;36.80;25.53;;;7.50;99.90;;;;;;6236557;28;20336;-77
2021/04/19 06:57:49;;;;;;;34.40;25.47;;;7.50;99.90;;;;;;6254309;28;20288;-76
2021/04/19 07:00:54;;;;;;;33.30;24.63;;;7.50;99.90;;;;;;6236611;28;20293;-77
2021/04/19 07:04:03;;;;;;;32.40;24.20;;;7.50;99.90;;;;;;6249510;28;20235;-76
2021/04/19 07:07:05;;;;;;;33.00;23.77;;;7.50;99.90;;;;;;6212191;28;20624;-76
2021/04/19 07:10:08;;;;;;;31.97;24.47;;;7.50;99.90;;;;;;6212520;28;20309;-77
2021/04/19 07:13:13;;;;;;;32.57;23.50;;;7.50;99.90;;;;;;6213028;28;20378;-77
2021/04/19 07:16:16;;;;;;;33.23;23.53;;;7.60;99.90;;;;;;6233080;28;20239;-77
2021/04/19 07:19:19;;;;;;;33.13;24.77;;;7.60;99.90;;;;;;6236708;28;20219;-77
2021/04/19 07:22:21;;;;;;;30.57;23.40;;;7.70;99.90;;;;;;6235975;28;20273;-76
2021/04/19 07:25:23;;;;;;;28.23;22.57;;;7.80;99.90;;;;;;6236703;28;20602;-76
2021/04/19 07:28:25;;;;;;;33.33;24.83;;;7.80;99.90;;;;;;6237231;28;20270;-77
2021/04/19 07:31:44;;;;;;;36.43;25.80;;;7.70;99.90;;;;;;6253397;28;20254;-76
2021/04/19 07:34:58;;;;;;;30.53;23.80;;;7.80;99.90;;;;;;6224589;28;20235;-77
2021/04/19 07:38:03;;;;;;;38.13;26.00;;;7.80;99.90;;;;;;6228061;28;20234;-76
2021/04/19 07:41:05;;;;;;;36.53;24.67;;;7.70;99.90;;;;;;6212130;28;20236;-76
2021/04/19 07:44:07;;;;;;;33.93;24.87;;;7.70;99.90;;;;;;6229261;28;20231;-76
2021/04/19 07:47:24;;;;;;;34.37;25.87;;;7.70;99.90;;;;;;6239879;28;20634;-76
2021/04/19 07:50:26;;;;;;;35.03;25.63;;;7.80;99.90;;;;;;6237068;28;20240;-76
2021/04/19 07:53:28;;;;;;;37.43;25.33;;;7.80;99.90;;;;;;6252911;28;20754;-76
2021/04/19 07:56:30;;;;;;;37.03;25.63;;;7.90;99.90;;;;;;6239370;28;20746;-76
2021/04/19 07:59:49;;;;;;;35.67;26.00;;;7.90;99.90;;;;;;6240179;28;20231;-77
2021/04/19 08:03:03;;;;;;;37.97;27.03;;;7.90;99.90;;;;;;6258196;28;20317;-77
2021/04/19 08:06:22;;;;;;;37.33;27.80;;;7.90;99.90;;;;;;6241185;28;20246;-76
2021/04/19 08:09:31;;;;;;;37.07;27.73;;;7.90;99.90;;;;;;6258780;28;20299;-77
2021/04/19 08:12:44;;;;;;;39.83;28.73;;;7.90;99.90;;;;;;6258300;28;20231;-77
2021/04/19 08:15:47;;;;;;;39.57;27.03;;;7.90;99.90;;;;;;6257966;28;20257;-77
2021/04/19 08:18:49;;;;;;;40.90;28.40;;;8.00;99.90;;;;;;6239692;28;20278;-77
2021/04/19 08:21:51;;;;;;;41.13;28.73;;;8.00;99.90;;;;;;6257428;28;20246;-76
2021/04/19 08:25:08;;;;;;;38.43;27.83;;;8.10;99.90;;;;;;6258482;28;20256;-76
2021/04/19 08:28:24;;;;;;;35.33;26.80;;;8.40;99.90;;;;;;6257893;28;20273;-77
2021/04/19 08:31:27;;;;;;;36.90;26.90;;;8.60;99.90;;;;;;6262116;28;20595;-77
2021/04/19 08:34:29;;;;;;;40.83;28.23;;;8.50;99.90;;;;;;6263437;28;20722;-76
2021/04/19 08:37:31;;;;;;;38.47;28.33;;;8.60;99.90;;;;;;6215384;28;20769;-77
2021/04/19 08:40:38;;;;;;;37.40;29.07;;;8.50;99.90;;;;;;6215203;28;20247;-76
2021/04/19 08:43:40;;;;;;;39.43;28.00;;;8.40;99.90;;;;;;6215336;28;20271;-76
2021/04/19 08:46:44;;;;;;;40.50;29.60;;;8.40;99.90;;;;;;6239342;28;20264;-76
2021/04/19 08:49:48;;;;;;;43.90;29.73;;;8.50;99.90;;;;;;6239278;28;20231;-76
2021/04/19 08:52:52;;;;;;;43.83;30.63;;;8.50;99.90;;;;;;6256794;28;20607;-77
2021/04/19 08:55:54;;;;;;;41.77;30.33;;;8.60;99.90;;;;;;6258125;28;20278;-77
2021/04/19 08:58:56;;;;;;;39.43;29.40;;;8.70;99.90;;;;;;6238688;28;20270;-76
2021/04/19 09:01:59;;;;;;;42.10;29.33;;;8.90;99.90;;;;;;6223933;28;20734;-77
2021/04/19 09:05:14;;;;;;;40.77;28.63;;;8.90;99.90;;;;;;6238850;28;20228;-77
2021/04/19 09:08:18;;;;;;;40.10;29.63;;;9.00;99.90;;;;;;6238689;28;20795;-76
2021/04/19 09:11:27;;;;;;;38.33;27.83;;;9.00;99.90;;;;;;6256637;28;20265;-77
2021/04/19 09:14:45;;;;;;;37.37;28.03;;;9.30;99.90;;;;;;6256630;28;20219;-77
2021/04/19 09:18:04;;;;;;;38.80;27.90;;;9.40;99.90;;;;;;6256584;28;20249;-77
2021/04/19 09:21:08;;;;;;;35.97;27.17;;;9.40;99.90;;;;;;6256799;28;20246;-77
2021/04/19 09:24:12;;;;;;;38.03;28.93;;;9.40;99.90;;;;;;6240556;28;20288;-77
2021/04/19 09:27:58;;;;;;;37.97;27.93;;;9.40;99.90;;;;;;6250959;28;20680;-77
2021/04/19 09:31:00;;;;;;;38.67;28.67;;;9.40;99.90;;;;;;6281027;28;20289;-77
2021/04/19 09:34:12;;;;;;;38.53;27.07;;;9.40;99.90;;;;;;6252398;28;20274;-77
2021/04/19 09:37:20;;;;;;;37.10;27.93;;;9.50;99.90;;;;;;6214312;28;20701;-76
2021/04/19 09:40:24;;;;;;;34.70;26.33;;;9.60;99.90;;;;;;6232608;28;20375;-77
2021/04/19 09:43:46;;;;;;;36.00;26.83;;;9.70;99.90;;;;;;6215241;28;20250;-76
2021/04/19 09:46:52;;;;;;;34.00;26.97;;;9.70;99.90;;;;;;6222417;28;20727;-77
2021/04/19 09:49:54;;;;;;;36.07;27.33;;;9.90;99.90;;;;;;6259577;28;20594;-77
2021/04/19 09:52:56;;;;;;;33.90;26.90;;;10.00;99.90;;;;;;6260674;28;20318;-76
2021/04/19 09:55:58;;;;;;;37.00;26.73;;;10.20;99.90;;;;;;6243541;28;20230;-77
2021/04/19 09:59:01;;;;;;;32.70;24.60;;;10.50;99.90;;;;;;6243350;28;20263;-77
2021/04/19 10:02:03;;;;;;;33.30;24.50;;;10.50;99.90;;;;;;6240310;28;20262;-76
2021/04/19 10:05:06;;;;;;;32.93;25.40;;;10.40;99.90;;;;;;6242532;28;20226;-77
2021/04/19 10:08:10;;;;;;;31.83;24.17;;;10.40;99.90;;;;;;6258506;28;20593;-77
2021/04/19 10:11:13;;;;;;;33.37;25.83;;;10.50;99.90;;;;;;6241989;28;20318;-77
2021/04/19 10:14:16;;;;;;;30.87;23.47;;;10.50;99.90;;;;;;6257954;28;20241;-77
2021/04/19 10:17:22;;;;;;;28.17;22.73;;;10.50;99.90;;;;;;6256411;28;20564;-77
2021/04/19 10:20:27;;;;;;;29.97;23.70;;;10.50;99.90;;;;;;6256058;28;20230;-77
2021/04/19 10:23:35;;;;;;;33.57;25.50;;;10.40;99.90;;;;;;6221829;28;20303;-77
2021/04/19 10:26:39;;;;;;;31.50;24.77;;;10.40;99.90;;;;;;6256233;28;20234;-76
2021/04/19 10:29:42;;;;;;;30.43;23.57;;;10.40;99.90;;;;;;6270721;28;20236;-77
2021/04/19 10:32:44;;;;;;;29.30;23.53;;;10.50;99.90;;;;;;6281624;28;20782;-77
2021/04/19 10:35:47;;;;;;;32.93;25.13;;;10.80;99.90;;;;;;6239823;28;20617;-77
2021/04/19 10:39:12;;;;;;;30.17;23.47;;;10.90;99.90;;;;;;6232610;28;20227;-77
2021/04/19 10:42:23;;;;;;;30.23;23.63;;;10.80;99.90;;;;;;6230995;28;20245;-77
2021/04/19 10:45:28;;;;;;;30.87;24.40;;;10.70;99.90;;;;;;6214675;28;20273;-77
2021/04/19 10:48:32;;;;;;;29.47;22.93;;;10.60;99.90;;;;;;6252007;28;20257;-77
2021/04/19 10:51:36;;;;;;;30.13;23.93;;;10.60;99.90;;;;;;6255755;28;20325;-77
2021/04/19 10:54:41;;;;;;;28.97;22.30;;;10.60;99.90;;;;;;6236850;28;20240;-77
2021/04/19 10:57:43;;;;;;;29.40;23.03;;;10.60;99.90;;;;;;6260053;28;20250;-77
2021/04/19 11:00:45;;;;;;;33.10;24.70;;;10.90;99.90;;;;;;6243907;28;20238;-77
2021/04/19 11:03:47;;;;;;;28.87;22.57;;;11.00;99.90;;;;;;6260263;28;20269;-77
2021/04/19 11:06:50;;;;;;;28.23;22.37;;;11.30;99.90;;;;;;6239793;28;20242;-77
2021/04/19 11:10:22;;;;;;;25.90;20.77;;;11.50;99.90;;;;;;6262099;28;20381;-77
2021/04/19 11:13:25;;;;;;;27.70;21.93;;;11.80;99.90;;;;;;6266996;28;20275;-77
2021/04/19 11:16:27;;;;;;;28.83;22.27;;;12.00;99.90;;;;;;6247770;28;20226;-77
2021/04/19 11:19:46;;;;;;;26.77;22.00;;;12.10;99.90;;;;;;6242766;28;20304;-77
2021/04/19 11:22:48;;;;;;;29.37;21.63;;;12.20;99.90;;;;;;6264745;28;20259;-77
2021/04/19 11:25:51;;;;;;;28.00;21.60;;;12.00;99.90;;;;;;6256406;28;20723;-77
2021/04/19 11:28:53;;;;;;;27.77;20.83;;;11.70;99.90;;;;;;6241803;28;20258;-77
2021/04/19 11:31:58;;;;;;;29.43;21.80;;;11.50;99.90;;;;;;6263376;28;20242;-77
2021/04/19 11:35:04;;;;;;;27.50;20.67;;;11.40;99.90;;;;;;6262539;28;20260;-77
2021/04/19 11:38:08;;;;;;;30.77;21.70;;;11.20;99.90;;;;;;6244727;28;20320;-77
2021/04/19 11:41:14;;;;;;;28.67;22.57;;;11.10;99.90;;;;;;6262738;28;20241;-77
2021/04/19 11:44:16;;;;;;;26.87;20.43;;;11.00;99.90;;;;;;6268451;28;20245;-77
2021/04/19 11:47:19;;;;;;;27.10;21.30;;;11.10;99.90;;;;;;6253274;28;20270;-77
2021/04/19 11:50:23;;;;;;;26.63;20.30;;;11.30;99.90;;;;;;6271594;28;20226;-76
2021/04/19 11:53:30;;;;;;;25.03;20.83;;;11.70;99.90;;;;;;6251274;28;20866;-77
2021/04/19 11:56:32;;;;;;;25.07;20.60;;;12.40;99.90;;;;;;6273426;28;20227;-77
2021/04/19 11:59:34;;;;;;;26.57;21.17;;;13.10;99.90;;;;;;6241701;28;20254;-77
2021/04/19 12:02:36;;;;;;;25.83;20.07;;;13.60;99.90;;;;;;6255621;28;20847;-77
2021/04/19 12:05:40;;;;;;;25.10;21.10;;;13.70;99.80;;;;;;6239618;28;20241;-77
2021/04/19 12:08:44;;;;;;;26.10;20.63;;;13.90;99.90;;;;;;6251390;28;20241;-77
2021/04/19 12:11:48;;;;;;;23.40;19.47;;;13.90;99.50;;;;;;6233721;28;20233;-77
2021/04/19 12:14:51;;;;;;;23.63;18.83;;;13.70;99.60;;;;;;6233690;28;20232;-77
2021/04/19 12:17:53;;;;;;;24.63;21.43;;;13.60;99.80;;;;;;6229180;28;20295;-77
2021/04/19 12:20:55;;;;;;;25.43;20.90;;;13.20;98.90;;;;;;6248678;28;20237;-77
2021/04/19 12:23:57;;;;;;;24.13;19.50;;;12.70;99.50;;;;;;6258496;28;20303;-77
2021/04/19 12:26:59;;;;;;;26.47;21.40;;;12.30;99.90;;;;;;6273873;28;20228;-77
2021/04/19 12:30:03;;;;;;;22.47;20.03;;;12.00;99.90;;;;;;6271430;28;20319;-77
2021/04/19 12:33:05;;;;;;;22.87;19.70;;;11.80;99.90;;;;;;6265641;28;20217;-77
2021/04/19 12:36:08;;;;;;;24.67;19.77;;;11.70;99.90;;;;;;6245869;28;20227;-77
2021/04/19 12:39:09;;;;;;;23.80;19.53;;;11.60;99.90;;;;;;6228690;28;20208;-77
2021/04/19 12:42:11;;;;;;;23.27;18.13;;;11.60;99.90;;;;;;6244520;28;20237;-77
2021/04/19 12:45:13;;;;;;;21.23;18.80;;;12.00;99.90;;;;;;6227124;28;20211;-77
2021/04/19 12:48:15;;;;;;;22.00;17.40;;;12.60;99.90;;;;;;6248924;28;20215;-77
2021/04/19 12:51:17;;;;;;;22.07;18.73;;;12.90;99.90;;;;;;6254484;28;20294;-77
2021/04/19 12:54:21;;;;;;;22.20;18.50;;;13.30;99.90;;;;;;6253291;28;20272;-78
2021/04/19 12:57:23;;;;;;;21.07;18.37;;;13.80;99.20;;;;;;6272230;28;20228;-77
2021/04/19 13:00:26;;;;;;;23.40;19.10;;;14.30;96.60;;;;;;6271280;28;20713;-77
2021/04/19 13:03:28;;;;;;;23.73;18.20;;;14.20;96.00;;;;;;6273868;28;20247;-77
2021/04/19 13:06:29;;;;;;;21.83;18.57;;;14.10;96.90;;;;;;6254452;28;20251;-78
2021/04/19 13:09:32;;;;;;;21.17;17.60;;;14.00;96.10;;;;;;6256742;28;20243;-77
2021/04/19 13:12:34;;;;;;;19.73;16.13;;;14.40;97.00;;;;;;6274344;28;20693;-77
2021/04/19 13:15:36;;;;;;;22.03;17.87;;;14.80;95.80;;;;;;6257822;28;20233;-77
2021/04/19 13:18:38;;;;;;;24.10;18.50;;;15.00;94.20;;;;;;6269789;28;20241;-77
2021/04/19 13:21:40;;;;;;;23.30;18.47;;;14.70;94.80;;;;;;6255015;28;20291;-77
2021/04/19 13:24:42;;;;;;;21.93;18.53;;;14.30;93.90;;;;;;6234704;28;20229;-77
2021/04/19 13:27:44;;;;;;;21.83;17.87;;;13.80;94.60;;;;;;6237507;28;20240;-77
2021/04/19 13:30:46;;;;;;;25.67;17.70;;;13.30;95.90;;;;;;6254552;28;20654;-77
2021/04/19 13:33:48;;;;;;;22.30;17.40;;;13.20;96.90;;;;;;6272620;28;20235;-77
2021/04/19 13:36:50;;;;;;;21.80;16.57;;;13.20;97.40;;;;;;6256043;28;20755;-77
2021/04/19 13:39:52;;;;;;;21.40;15.93;;;13.50;97.30;;;;;;6273162;28;20274;-77
2021/04/19 13:42:54;;;;;;;20.60;17.30;;;13.70;96.70;;;;;;6254153;28;20249;-77
2021/04/19 13:45:56;;;;;;;22.07;18.20;;;13.50;95.70;;;;;;6274244;28;20264;-77
2021/04/19 13:48:58;;;;;;;19.67;17.03;;;13.20;96.60;;;;;;6271706;28;20263;-77
2021/04/19 13:52:00;;;;;;;23.87;17.93;;;12.70;97.30;;;;;;6270241;28;20227;-77
2021/04/19 13:55:04;;;;;;;21.57;17.33;;;12.40;98.10;;;;;;6250654;28;20318;-77
2021/04/19 13:58:06;;;;;;;20.00;17.07;;;11.90;99.60;;;;;;6253360;28;20334;-77
2021/04/19 14:01:08;;;;;;;22.40;17.37;;;11.70;99.90;;;;;;6249249;28;20231;-77
2021/04/19 14:04:10;;;;;;;19.23;17.07;;;11.40;99.90;;;;;;6240183;28;20235;-77
2021/04/19 14:07:12;;;;;;;20.80;17.17;;;11.30;99.90;;;;;;6239769;28;21017;-77
2021/04/19 14:10:15;;;;;;;21.00;18.00;;;11.10;99.90;;;;;;6249639;28;20240;-76
2021/04/19 14:13:17;;;;;;;22.53;17.97;;;11.10;99.90;;;;;;6289175;28;20635;-77
2021/04/19 14:16:18;;;;;;;21.43;17.57;;;11.00;99.90;;;;;;6289553;28;20671;-77
2021/04/19 14:19:39;;;;;;;22.27;17.20;;;11.00;99.90;;;;;;6271396;28;20247;-77
2021/04/19 14:22:42;;;;;;;22.97;17.73;;;10.90;99.90;;;;;;6289038;28;20248;-77
2021/04/19 14:25:44;;;;;;;23.67;18.30;;;10.80;99.90;;;;;;6289890;28;20234;-77
2021/04/19 14:28:46;;;;;;;21.63;16.90;;;10.80;99.90;;;;;;6288340;28;20264;-77
2021/04/19 14:31:48;;;;;;;22.90;17.50;;;10.80;99.90;;;;;;6287806;28;20317;-77
2021/04/19 14:34:51;;;;;;;20.20;17.83;;;10.80;99.90;;;;;;6290707;28;20238;-77
2021/04/19 14:37:53;;;;;;;23.13;18.07;;;10.80;99.90;;;;;;6269361;28;20598;-77
2021/04/19 14:40:55;;;;;;;25.77;19.13;;;10.70;99.90;;;;;;6285402;28;20372;-77
2021/04/19 14:43:59;;;;;;;22.33;18.20;;;10.60;99.90;;;;;;6284990;28;20233;-77
2021/04/19 14:47:01;;;;;;;22.37;17.73;;;10.50;99.90;;;;;;6277455;28;20408;-77
2021/04/19 14:50:04;;;;;;;24.40;18.27;;;10.50;99.90;;;;;;6242940;28;20230;-77
2021/04/19 14:53:07;;;;;;;21.07;17.50;;;10.40;99.90;;;;;;6238976;28;20880;-77
2021/04/19 14:56:09;;;;;;;22.13;17.27;;;10.40;99.90;;;;;;6240717;28;20238;-77
2021/04/19 14:59:11;;;;;;;22.10;18.33;;;10.30;99.90;;;;;;6266792;28;20245;-77
2021/04/19 15:02:13;;;;;;;21.63;17.63;;;10.40;99.90;;;;;;6244064;28;20721;-77
2021/04/19 15:05:15;;;;;;;21.10;17.40;;;10.40;99.90;;;;;;6262118;28;20260;-77
2021/04/19 15:08:17;;;;;;;22.37;18.40;;;10.30;99.90;;;;;;6242637;28;20237;-77
2021/04/19 15:11:19;;;;;;;21.47;18.17;;;10.20;99.90;;;;;;6262461;28;20606;-77
2021/04/19 15:14:22;;;;;;;21.00;16.93;;;10.20;99.90;;;;;;6248168;28;20260;-76
2021/04/19 15:17:24;;;;;;;23.97;18.80;;;10.20;99.90;;;;;;6261926;28;20329;-77
2021/04/19 15:20:31;;;;;;;20.00;16.70;;;10.10;99.90;;;;;;6264673;28;20245;-77
2021/04/19 15:23:34;;;;;;;20.13;16.47;;;10.00;99.90;;;;;;6246118;28;20321;-77
2021/04/19 15:26:36;;;;;;;23.40;18.73;;;10.00;99.90;;;;;;6275721;28;20237;-77
2021/04/19 15:29:38;;;;;;;22.03;17.97;;;10.00;99.90;;;;;;6268416;28;20261;-77
2021/04/19 15:32:40;;;;;;;23.50;19.33;;;10.00;99.90;;;;;;6268524;28;20259;-77
2021/04/19 15:35:44;;;;;;;22.07;17.87;;;9.90;99.90;;;;;;6246879;28;20234;-77
2021/04/19 15:38:46;;;;;;;23.97;19.53;;;9.80;99.90;;;;;;6198797;28;20237;-77
2021/04/19 15:41:49;;;;;;;22.93;18.73;;;9.80;99.90;;;;;;6202855;28;20270;-77
2021/04/19 15:44:51;;;;;;;24.17;19.20;;;9.70;99.90;;;;;;6215954;28;20264;-77
2021/04/19 15:47:54;;;;;;;22.50;18.93;;;9.70;99.90;;;;;;6249593;28;20237;-77
2021/04/19 15:50:56;;;;;;;22.80;18.47;;;9.70;99.90;;;;;;6256885;28;20241;-77